sensor_id;sensor_type;location;lat;lon;timestamp;P1;durP1;ratioP1;P2;durP2;ratioP2
1062;SDS011;520;50.932;6.962;2022-08-02T00:02:17;4.33;;;3.00;;
1062;SDS011;520;50.932;6.962;2022-08-02T00:04:45;4.00;;;3.23;;
1062;SDS011;520;50.932;6.962;2022-08-02T00:07:12;2.63;;;2.43;;
1062;SDS011;520;50.932;6.962;2022-08-02T00:09:41;3.17;;;2.77;;
1062;SDS011;520;50.932;6.962;2022-08-02T00:12:08;3.70;;;2.80;;
1062;SDS011;520;50.932;6.962;2022-08-02T00:14:36;4.23;;;2.90;;
1062;SDS011;520;50.932;6.962;2022-08-02T00:17:03;4.50;;;3.37;;
1062;SDS011;520;50.932;6.962;2022-08-02T00:19:31;4.30;;;3.37;;
1062;SDS011;520;50.932;6.962;2022-08-02T00:21:58;5.83;;;3.70;;
1062;SDS011;520;50.932;6.962;2022-08-02T00:24:25;3.50;;;3.20;;
1062;SDS011;520;50.932;6.962;2022-08-02T00:26:56;5.50;;;4.43;;
1062;SDS011;520;50.932;6.962;2022-08-02T00:29:24;4.83;;;4.30;;
1062;SDS011;520;50.932;6.962;2022-08-02T00:31:52;3.90;;;3.60;;
1062;SDS011;520;50.932;6.962;2022-08-02T00:34:18;3.40;;;3.10;;
1062;SDS011;520;50.932;6.962;2022-08-02T00:36:55;3.80;;;3.50;;
1062;SDS011;520;50.932;6.962;2022-08-02T00:39:21;3.00;;;2.80;;
1062;SDS011;520;50.932;6.962;2022-08-02T00:42:00;3.80;;;3.30;;
1062;SDS011;520;50.932;6.962;2022-08-02T00:44:27;3.37;;;3.03;;
1062;SDS011;520;50.932;6.962;2022-08-02T00:46:53;2.90;;;2.70;;
1062;SDS011;520;50.932;6.962;2022-08-02T00:49:20;2.80;;;2.60;;
1062;SDS011;520;50.932;6.962;2022-08-02T00:51:47;3.80;;;2.63;;
1062;SDS011;520;50.932;6.962;2022-08-02T00:54:13;3.50;;;3.20;;
1062;SDS011;520;50.932;6.962;2022-08-02T00:56:40;8.83;;;3.73;;
1062;SDS011;520;50.932;6.962;2022-08-02T00:59:14;3.73;;;3.27;;
1062;SDS011;520;50.932;6.962;2022-08-02T01:01:41;10.60;;;3.30;;
1062;SDS011;520;50.932;6.962;2022-08-02T01:04:22;3.60;;;3.30;;
1062;SDS011;520;50.932;6.962;2022-08-02T01:06:52;5.73;;;3.20;;
1062;SDS011;520;50.932;6.962;2022-08-02T01:09:18;3.73;;;3.10;;
1062;SDS011;520;50.932;6.962;2022-08-02T01:11:45;4.37;;;3.50;;
1062;SDS011;520;50.932;6.962;2022-08-02T01:14:12;3.77;;;3.10;;
1062;SDS011;520;50.932;6.962;2022-08-02T01:16:51;5.83;;;3.13;;
1062;SDS011;520;50.932;6.962;2022-08-02T01:19:39;4.90;;;3.47;;
1062;SDS011;520;50.932;6.962;2022-08-02T01:28:13;4.10;;;3.30;;
1062;SDS011;520;50.932;6.962;2022-08-02T01:31:02;5.13;;;3.37;;
1062;SDS011;520;50.932;6.962;2022-08-02T01:33:43;3.80;;;2.87;;
1062;SDS011;520;50.932;6.962;2022-08-02T01:36:15;3.93;;;3.50;;
1062;SDS011;520;50.932;6.962;2022-08-02T01:38:45;6.10;;;3.30;;
1062;SDS011;520;50.932;6.962;2022-08-02T01:41:18;3.43;;;3.13;;
1062;SDS011;520;50.932;6.962;2022-08-02T01:43:50;3.80;;;3.50;;
1062;SDS011;520;50.932;6.962;2022-08-02T01:46:21;5.60;;;3.70;;
1062;SDS011;520;50.932;6.962;2022-08-02T01:48:49;3.83;;;3.23;;
1062;SDS011;520;50.932;6.962;2022-08-02T01:51:28;6.93;;;4.00;;
1062;SDS011;520;50.932;6.962;2022-08-02T01:54:22;3.90;;;3.40;;
1062;SDS011;520;50.932;6.962;2022-08-02T01:56:56;7.40;;;3.27;;
1062;SDS011;520;50.932;6.962;2022-08-02T01:59:36;8.63;;;3.70;;
1062;SDS011;520;50.932;6.962;2022-08-02T02:02:12;5.93;;;4.17;;
1062;SDS011;520;50.932;6.962;2022-08-02T02:04:47;5.40;;;4.03;;
1062;SDS011;520;50.932;6.962;2022-08-02T02:07:15;7.90;;;3.93;;
1062;SDS011;520;50.932;6.962;2022-08-02T02:09:50;4.33;;;3.93;;
1062;SDS011;520;50.932;6.962;2022-08-02T02:12:34;5.30;;;4.50;;
1062;SDS011;520;50.932;6.962;2022-08-02T02:15:07;6.83;;;4.40;;
1062;SDS011;520;50.932;6.962;2022-08-02T02:17:37;11.30;;;4.90;;
1062;SDS011;520;50.932;6.962;2022-08-02T02:20:16;6.20;;;5.60;;
1062;SDS011;520;50.932;6.962;2022-08-02T02:22:54;9.70;;;5.37;;
1062;SDS011;520;50.932;6.962;2022-08-02T02:25:28;6.13;;;4.73;;
1062;SDS011;520;50.932;6.962;2022-08-02T02:28:13;6.90;;;4.60;;
1062;SDS011;520;50.932;6.962;2022-08-02T02:30:47;8.77;;;5.17;;
1062;SDS011;520;50.932;6.962;2022-08-02T02:33:21;6.07;;;4.00;;
1062;SDS011;520;50.932;6.962;2022-08-02T02:35:54;6.83;;;4.53;;
1062;SDS011;520;50.932;6.962;2022-08-02T02:38:23;6.07;;;3.90;;
1062;SDS011;520;50.932;6.962;2022-08-02T02:40:52;6.53;;;4.00;;
1062;SDS011;520;50.932;6.962;2022-08-02T02:43:28;6.27;;;4.53;;
1062;SDS011;520;50.932;6.962;2022-08-02T02:45:57;5.10;;;4.27;;
1062;SDS011;520;50.932;6.962;2022-08-02T02:48:26;5.27;;;4.57;;
1062;SDS011;520;50.932;6.962;2022-08-02T02:50:54;8.00;;;4.50;;
1062;SDS011;520;50.932;6.962;2022-08-02T02:53:25;6.23;;;4.67;;
1062;SDS011;520;50.932;6.962;2022-08-02T02:55:53;7.20;;;4.70;;
1062;SDS011;520;50.932;6.962;2022-08-02T02:58:27;5.47;;;4.10;;
1062;SDS011;520;50.932;6.962;2022-08-02T03:00:54;5.10;;;4.00;;
1062;SDS011;520;50.932;6.962;2022-08-02T03:03:42;6.30;;;4.70;;
1062;SDS011;520;50.932;6.962;2022-08-02T03:06:11;4.43;;;4.00;;
1062;SDS011;520;50.932;6.962;2022-08-02T03:08:40;6.37;;;4.00;;
1062;SDS011;520;50.932;6.962;2022-08-02T03:11:08;4.97;;;4.47;;
1062;SDS011;520;50.932;6.962;2022-08-02T03:13:37;5.00;;;4.50;;
1062;SDS011;520;50.932;6.962;2022-08-02T03:16:05;5.93;;;5.33;;
1062;SDS011;520;50.932;6.962;2022-08-02T03:18:34;6.17;;;4.70;;
1062;SDS011;520;50.932;6.962;2022-08-02T03:21:04;6.20;;;5.60;;
1062;SDS011;520;50.932;6.962;2022-08-02T03:26:34;6.03;;;5.07;;
1062;SDS011;520;50.932;6.962;2022-08-02T03:29:10;7.40;;;5.00;;
1062;SDS011;520;50.932;6.962;2022-08-02T03:31:39;5.20;;;4.70;;
1062;SDS011;520;50.932;6.962;2022-08-02T03:37:03;5.17;;;4.27;;
1062;SDS011;520;50.932;6.962;2022-08-02T03:39:30;6.77;;;5.37;;
1062;SDS011;520;50.932;6.962;2022-08-02T03:42:01;5.90;;;4.60;;
1062;SDS011;520;50.932;6.962;2022-08-02T03:44:28;6.03;;;4.50;;
1062;SDS011;520;50.932;6.962;2022-08-02T03:46:56;4.83;;;4.43;;
1062;SDS011;520;50.932;6.962;2022-08-02T03:49:27;5.23;;;4.17;;
1062;SDS011;520;50.932;6.962;2022-08-02T03:51:57;5.27;;;4.77;;
1062;SDS011;520;50.932;6.962;2022-08-02T03:54:25;5.40;;;4.90;;
1062;SDS011;520;50.932;6.962;2022-08-02T03:56:58;5.73;;;4.80;;
1062;SDS011;520;50.932;6.962;2022-08-02T03:59:25;6.00;;;5.47;;
1062;SDS011;520;50.932;6.962;2022-08-02T04:02:00;6.40;;;5.80;;
1062;SDS011;520;50.932;6.962;2022-08-02T04:04:28;5.40;;;4.90;;
1062;SDS011;520;50.932;6.962;2022-08-02T04:07:15;6.23;;;5.73;;
1062;SDS011;520;50.932;6.962;2022-08-02T04:10:08;7.93;;;5.00;;
1062;SDS011;520;50.932;6.962;2022-08-02T04:12:38;6.03;;;5.43;;
1062;SDS011;520;50.932;6.962;2022-08-02T04:15:16;5.83;;;5.20;;
1062;SDS011;520;50.932;6.962;2022-08-02T04:17:56;5.80;;;5.30;;
1062;SDS011;520;50.932;6.962;2022-08-02T04:20:53;8.13;;;5.90;;
1062;SDS011;520;50.932;6.962;2022-08-02T04:23:21;7.00;;;6.23;;
1062;SDS011;520;50.932;6.962;2022-08-02T04:26:17;7.20;;;6.50;;
1062;SDS011;520;50.932;6.962;2022-08-02T04:28:57;9.17;;;6.90;;
1062;SDS011;520;50.932;6.962;2022-08-02T04:31:43;8.23;;;6.80;;
1062;SDS011;520;50.932;6.962;2022-08-02T04:37:47;7.20;;;6.40;;
1062;SDS011;520;50.932;6.962;2022-08-02T04:40:30;7.47;;;6.83;;
1062;SDS011;520;50.932;6.962;2022-08-02T04:43:06;7.80;;;7.00;;
1062;SDS011;520;50.932;6.962;2022-08-02T04:45:38;8.30;;;6.23;;
1062;SDS011;520;50.932;6.962;2022-08-02T04:48:11;9.57;;;7.30;;
1062;SDS011;520;50.932;6.962;2022-08-02T04:50:38;8.60;;;7.43;;
1062;SDS011;520;50.932;6.962;2022-08-02T04:53:16;11.20;;;8.50;;
1062;SDS011;520;50.932;6.962;2022-08-02T04:55:53;10.30;;;8.30;;
1062;SDS011;520;50.932;6.962;2022-08-02T04:58:30;9.00;;;8.07;;
1062;SDS011;520;50.932;6.962;2022-08-02T05:01:42;9.90;;;8.90;;
1062;SDS011;520;50.932;6.962;2022-08-02T05:04:37;9.50;;;7.73;;
1062;SDS011;520;50.932;6.962;2022-08-02T05:07:22;8.37;;;7.53;;
1062;SDS011;520;50.932;6.962;2022-08-02T05:10:14;9.23;;;8.43;;
1062;SDS011;520;50.932;6.962;2022-08-02T05:12:54;9.10;;;8.30;;
1062;SDS011;520;50.932;6.962;2022-08-02T05:15:35;8.83;;;7.47;;
1062;SDS011;520;50.932;6.962;2022-08-02T05:18:05;8.87;;;7.30;;
1062;SDS011;520;50.932;6.962;2022-08-02T05:20:45;8.43;;;7.63;;
1062;SDS011;520;50.932;6.962;2022-08-02T05:23:44;9.90;;;8.50;;
1062;SDS011;520;50.932;6.962;2022-08-02T05:29:30;8.13;;;7.33;;
1062;SDS011;520;50.932;6.962;2022-08-02T05:32:06;8.47;;;7.77;;
1062;SDS011;520;50.932;6.962;2022-08-02T05:34:41;8.20;;;7.50;;
1062;SDS011;520;50.932;6.962;2022-08-02T05:37:31;8.63;;;7.70;;
1062;SDS011;520;50.932;6.962;2022-08-02T05:40:10;9.10;;;8.20;;
1062;SDS011;520;50.932;6.962;2022-08-02T05:42:40;8.67;;;7.60;;
1062;SDS011;520;50.932;6.962;2022-08-02T05:45:18;8.47;;;7.77;;
1062;SDS011;520;50.932;6.962;2022-08-02T05:47:50;7.73;;;7.13;;
1062;SDS011;520;50.932;6.962;2022-08-02T05:50:49;8.03;;;7.43;;
1062;SDS011;520;50.932;6.962;2022-08-02T05:56:15;7.10;;;6.53;;
1062;SDS011;520;50.932;6.962;2022-08-02T05:59:19;8.37;;;7.50;;
1062;SDS011;520;50.932;6.962;2022-08-02T06:02:07;8.87;;;7.63;;
1062;SDS011;520;50.932;6.962;2022-08-02T06:05:20;7.80;;;7.10;;
1062;SDS011;520;50.932;6.962;2022-08-02T06:07:54;8.43;;;7.83;;
1062;SDS011;520;50.932;6.962;2022-08-02T06:10:23;7.37;;;6.73;;
1062;SDS011;520;50.932;6.962;2022-08-02T06:13:06;7.83;;;7.13;;
1062;SDS011;520;50.932;6.962;2022-08-02T06:15:51;10.23;;;7.43;;
1062;SDS011;520;50.932;6.962;2022-08-02T06:18:29;8.23;;;7.43;;
1062;SDS011;520;50.932;6.962;2022-08-02T06:21:12;7.97;;;6.67;;
1062;SDS011;520;50.932;6.962;2022-08-02T06:24:02;6.87;;;6.17;;
1062;SDS011;520;50.932;6.962;2022-08-02T06:26:36;6.93;;;6.27;;
1062;SDS011;520;50.932;6.962;2022-08-02T06:29:16;9.13;;;7.03;;
1062;SDS011;520;50.932;6.962;2022-08-02T06:32:23;7.23;;;6.17;;
1062;SDS011;520;50.932;6.962;2022-08-02T06:35:25;7.23;;;6.53;;
1062;SDS011;520;50.932;6.962;2022-08-02T06:38:13;7.33;;;6.73;;
1062;SDS011;520;50.932;6.962;2022-08-02T06:47:35;7.83;;;7.23;;
1062;SDS011;520;50.932;6.962;2022-08-02T06:50:26;8.93;;;7.70;;
1062;SDS011;520;50.932;6.962;2022-08-02T06:53:04;8.00;;;7.40;;
1062;SDS011;520;50.932;6.962;2022-08-02T06:58:18;8.17;;;6.80;;
1062;SDS011;520;50.932;6.962;2022-08-02T07:01:03;10.17;;;7.13;;
1062;SDS011;520;50.932;6.962;2022-08-02T07:03:58;8.10;;;6.40;;
1062;SDS011;520;50.932;6.962;2022-08-02T07:09:30;6.50;;;6.00;;
1062;SDS011;520;50.932;6.962;2022-08-02T07:12:03;9.57;;;6.73;;
1062;SDS011;520;50.932;6.962;2022-08-02T07:14:41;7.57;;;6.83;;
1062;SDS011;520;50.932;6.962;2022-08-02T07:17:19;6.60;;;6.03;;
1062;SDS011;520;50.932;6.962;2022-08-02T07:20:06;8.10;;;5.83;;
1062;SDS011;520;50.932;6.962;2022-08-02T07:22:47;6.87;;;5.83;;
1062;SDS011;520;50.932;6.962;2022-08-02T07:25:31;7.00;;;5.63;;
1062;SDS011;520;50.932;6.962;2022-08-02T07:28:29;6.20;;;5.60;;
1062;SDS011;520;50.932;6.962;2022-08-02T07:31:05;6.23;;;5.73;;
1062;SDS011;520;50.932;6.962;2022-08-02T07:34:08;6.73;;;5.90;;
1062;SDS011;520;50.932;6.962;2022-08-02T07:36:54;5.50;;;5.00;;
1062;SDS011;520;50.932;6.962;2022-08-02T07:40:10;6.73;;;5.93;;
1062;SDS011;520;50.932;6.962;2022-08-02T07:42:48;6.13;;;5.53;;
1062;SDS011;520;50.932;6.962;2022-08-02T07:45:45;5.20;;;4.70;;
1062;SDS011;520;50.932;6.962;2022-08-02T07:48:25;5.47;;;4.97;;
1062;SDS011;520;50.932;6.962;2022-08-02T07:50:53;7.27;;;4.60;;
1062;SDS011;520;50.932;6.962;2022-08-02T07:53:33;6.47;;;4.30;;
1062;SDS011;520;50.932;6.962;2022-08-02T07:56:36;5.60;;;4.63;;
1062;SDS011;520;50.932;6.962;2022-08-02T07:59:22;5.33;;;4.83;;
1062;SDS011;520;50.932;6.962;2022-08-02T08:02:39;10.73;;;5.00;;
1062;SDS011;520;50.932;6.962;2022-08-02T08:09:56;4.73;;;3.87;;
1062;SDS011;520;50.932;6.962;2022-08-02T08:13:01;4.73;;;3.67;;
1062;SDS011;520;50.932;6.962;2022-08-02T08:15:47;4.50;;;3.70;;
1062;SDS011;520;50.932;6.962;2022-08-02T08:19:35;3.93;;;3.33;;
1062;SDS011;520;50.932;6.962;2022-08-02T08:22:16;3.80;;;3.50;;
1062;SDS011;520;50.932;6.962;2022-08-02T08:25:15;3.47;;;3.17;;
1062;SDS011;520;50.932;6.962;2022-08-02T08:27:51;3.90;;;2.77;;
1062;SDS011;520;50.932;6.962;2022-08-02T08:30:40;3.80;;;3.30;;
1062;SDS011;520;50.932;6.962;2022-08-02T08:33:41;5.60;;;3.20;;
1062;SDS011;520;50.932;6.962;2022-08-02T08:36:39;3.30;;;3.00;;
1062;SDS011;520;50.932;6.962;2022-08-02T08:53:20;7.20;;;4.10;;
1062;SDS011;520;50.932;6.962;2022-08-02T08:56:04;3.37;;;2.87;;
1062;SDS011;520;50.932;6.962;2022-08-02T08:58:57;3.83;;;2.90;;
1062;SDS011;520;50.932;6.962;2022-08-02T09:01:38;3.73;;;2.60;;
1062;SDS011;520;50.932;6.962;2022-08-02T09:04:55;3.30;;;3.00;;
1062;SDS011;520;50.932;6.962;2022-08-02T09:13:35;3.10;;;2.73;;
1062;SDS011;520;50.932;6.962;2022-08-02T09:16:44;3.70;;;2.87;;
1062;SDS011;520;50.932;6.962;2022-08-02T09:19:26;26.60;;;6.17;;
1062;SDS011;520;50.932;6.962;2022-08-02T09:22:28;3.20;;;2.77;;
1062;SDS011;520;50.932;6.962;2022-08-02T09:25:27;3.70;;;2.87;;
1062;SDS011;520;50.932;6.962;2022-08-02T09:28:10;4.03;;;2.67;;
1062;SDS011;520;50.932;6.962;2022-08-02T09:30:47;4.43;;;3.03;;
1062;SDS011;520;50.932;6.962;2022-08-02T09:33:28;5.77;;;2.93;;
1062;SDS011;520;50.932;6.962;2022-08-02T09:47:13;2.40;;;2.20;;
1062;SDS011;520;50.932;6.962;2022-08-02T09:50:38;2.90;;;2.10;;
1062;SDS011;520;50.932;6.962;2022-08-02T09:53:26;1.90;;;1.77;;
1062;SDS011;520;50.932;6.962;2022-08-02T09:56:53;2.57;;;2.00;;
1062;SDS011;520;50.932;6.962;2022-08-02T09:59:51;1.80;;;1.70;;
1062;SDS011;520;50.932;6.962;2022-08-02T10:06:11;1.70;;;1.60;;
1062;SDS011;520;50.932;6.962;2022-08-02T10:20:39;1.80;;;1.70;;
1062;SDS011;520;50.932;6.962;2022-08-02T10:23:30;1.77;;;1.67;;
1062;SDS011;520;50.932;6.962;2022-08-02T10:26:47;2.10;;;1.90;;
1062;SDS011;520;50.932;6.962;2022-08-02T10:30:02;1.80;;;1.70;;
1062;SDS011;520;50.932;6.962;2022-08-02T10:32:45;2.07;;;1.60;;
1062;SDS011;520;50.932;6.962;2022-08-02T10:35:25;1.97;;;1.87;;
1062;SDS011;520;50.932;6.962;2022-08-02T10:38:03;1.97;;;1.87;;
1062;SDS011;520;50.932;6.962;2022-08-02T10:40:55;2.30;;;2.20;;
1062;SDS011;520;50.932;6.962;2022-08-02T10:43:42;1.97;;;1.87;;
1062;SDS011;520;50.932;6.962;2022-08-02T10:47:45;1.93;;;1.83;;
1062;SDS011;520;50.932;6.962;2022-08-02T10:50:00;2.67;;;2.03;;
1062;SDS011;520;50.932;6.962;2022-08-02T10:53:11;2.40;;;2.07;;
1062;SDS011;520;50.932;6.962;2022-08-02T10:56:20;3.13;;;2.00;;
1062;SDS011;520;50.932;6.962;2022-08-02T10:59:54;2.80;;;2.00;;
1062;SDS011;520;50.932;6.962;2022-08-02T11:06:01;2.60;;;1.90;;
1062;SDS011;520;50.932;6.962;2022-08-02T11:27:28;1.90;;;1.60;;
1062;SDS011;520;50.932;6.962;2022-08-02T11:29:59;4.43;;;1.50;;
1062;SDS011;520;50.932;6.962;2022-08-02T11:33:32;1.63;;;1.53;;
1062;SDS011;520;50.932;6.962;2022-08-02T11:54:51;1.70;;;1.60;;
1062;SDS011;520;50.932;6.962;2022-08-02T12:01:36;2.70;;;1.90;;
1062;SDS011;520;50.932;6.962;2022-08-02T12:05:04;2.33;;;2.10;;
1062;SDS011;520;50.932;6.962;2022-08-02T12:08:35;2.47;;;2.27;;
1062;SDS011;520;50.932;6.962;2022-08-02T12:14:02;2.37;;;2.17;;
1062;SDS011;520;50.932;6.962;2022-08-02T12:17:01;1.80;;;1.70;;
1062;SDS011;520;50.932;6.962;2022-08-02T12:20:07;2.80;;;1.57;;
1062;SDS011;520;50.932;6.962;2022-08-02T12:22:53;1.90;;;1.70;;
1062;SDS011;520;50.932;6.962;2022-08-02T12:28:36;4.13;;;3.80;;
1062;SDS011;520;50.932;6.962;2022-08-02T12:31:46;2.40;;;1.90;;
1062;SDS011;520;50.932;6.962;2022-08-02T12:34:29;2.17;;;2.00;;
1062;SDS011;520;50.932;6.962;2022-08-02T12:44:02;3.30;;;2.30;;
1062;SDS011;520;50.932;6.962;2022-08-02T12:46:42;2.03;;;1.93;;
1062;SDS011;520;50.932;6.962;2022-08-02T12:49:35;3.93;;;2.20;;
1062;SDS011;520;50.932;6.962;2022-08-02T12:52:20;2.30;;;1.97;;
1062;SDS011;520;50.932;6.962;2022-08-02T12:55:23;2.60;;;2.20;;
1062;SDS011;520;50.932;6.962;2022-08-02T13:05:05;1.80;;;1.70;;
1062;SDS011;520;50.932;6.962;2022-08-02T13:07:43;3.37;;;1.93;;
1062;SDS011;520;50.932;6.962;2022-08-02T13:13:22;4.10;;;2.20;;
1062;SDS011;520;50.932;6.962;2022-08-02T13:15:51;2.57;;;2.10;;
1062;SDS011;520;50.932;6.962;2022-08-02T13:19:00;2.47;;;1.97;;
1062;SDS011;520;50.932;6.962;2022-08-02T13:22:03;2.20;;;1.80;;
1062;SDS011;520;50.932;6.962;2022-08-02T13:24:43;2.57;;;2.37;;
1062;SDS011;520;50.932;6.962;2022-08-02T13:27:42;2.10;;;2.00;;
1062;SDS011;520;50.932;6.962;2022-08-02T13:30:37;3.10;;;2.90;;
1062;SDS011;520;50.932;6.962;2022-08-02T13:36:20;2.00;;;1.90;;
1062;SDS011;520;50.932;6.962;2022-08-02T13:39:26;5.80;;;2.00;;
1062;SDS011;520;50.932;6.962;2022-08-02T13:42:19;2.23;;;2.13;;
1062;SDS011;520;50.932;6.962;2022-08-02T13:45:04;1.93;;;1.70;;
1062;SDS011;520;50.932;6.962;2022-08-02T13:50:49;2.50;;;2.07;;
1062;SDS011;520;50.932;6.962;2022-08-02T13:53:26;1.67;;;1.57;;
1062;SDS011;520;50.932;6.962;2022-08-02T13:56:16;2.10;;;2.00;;
1062;SDS011;520;50.932;6.962;2022-08-02T13:58:52;2.47;;;2.20;;
1062;SDS011;520;50.932;6.962;2022-08-02T14:01:21;6.30;;;3.87;;
1062;SDS011;520;50.932;6.962;2022-08-02T14:03:50;3.43;;;2.80;;
1062;SDS011;520;50.932;6.962;2022-08-02T14:06:31;1.93;;;1.73;;
1062;SDS011;520;50.932;6.962;2022-08-02T14:09:02;2.40;;;2.20;;
1062;SDS011;520;50.932;6.962;2022-08-02T14:11:32;2.97;;;2.70;;
1062;SDS011;520;50.932;6.962;2022-08-02T14:14:00;1.93;;;1.83;;
1062;SDS011;520;50.932;6.962;2022-08-02T14:16:27;2.00;;;1.90;;
1062;SDS011;520;50.932;6.962;2022-08-02T14:19:03;1.83;;;1.73;;
1062;SDS011;520;50.932;6.962;2022-08-02T14:21:31;1.80;;;1.70;;
1062;SDS011;520;50.932;6.962;2022-08-02T14:24:12;1.93;;;1.83;;
1062;SDS011;520;50.932;6.962;2022-08-02T14:26:42;3.67;;;2.17;;
1062;SDS011;520;50.932;6.962;2022-08-02T14:29:11;2.53;;;2.20;;
1062;SDS011;520;50.932;6.962;2022-08-02T14:31:44;2.00;;;1.90;;
1062;SDS011;520;50.932;6.962;2022-08-02T14:34:20;1.80;;;1.70;;
1062;SDS011;520;50.932;6.962;2022-08-02T14:36:47;2.43;;;2.20;;
1062;SDS011;520;50.932;6.962;2022-08-02T14:48:18;3.73;;;2.23;;
1062;SDS011;520;50.932;6.962;2022-08-02T14:50:45;2.20;;;2.10;;
1062;SDS011;520;50.932;6.962;2022-08-02T14:53:13;3.53;;;1.93;;
1062;SDS011;520;50.932;6.962;2022-08-02T14:55:50;3.63;;;2.00;;
1062;SDS011;520;50.932;6.962;2022-08-02T14:58:41;2.53;;;2.33;;
1062;SDS011;520;50.932;6.962;2022-08-02T15:03:56;2.73;;;2.10;;
1062;SDS011;520;50.932;6.962;2022-08-02T15:09:16;2.30;;;2.00;;
1062;SDS011;520;50.932;6.962;2022-08-02T15:11:43;2.27;;;2.07;;
1062;SDS011;520;50.932;6.962;2022-08-02T15:14:13;2.30;;;2.03;;
1062;SDS011;520;50.932;6.962;2022-08-02T15:20:40;2.33;;;1.90;;
1062;SDS011;520;50.932;6.962;2022-08-02T15:27:02;2.30;;;2.10;;
1062;SDS011;520;50.932;6.962;2022-08-02T15:35:58;5.03;;;2.23;;
1062;SDS011;520;50.932;6.962;2022-08-02T15:38:54;2.47;;;2.27;;
1062;SDS011;520;50.932;6.962;2022-08-02T15:41:22;2.10;;;1.90;;
1062;SDS011;520;50.932;6.962;2022-08-02T15:43:52;2.70;;;1.97;;
1062;SDS011;520;50.932;6.962;2022-08-02T15:46:25;2.00;;;1.90;;
1062;SDS011;520;50.932;6.962;2022-08-02T15:48:56;2.30;;;2.10;;
1062;SDS011;520;50.932;6.962;2022-08-02T15:54:15;2.57;;;2.37;;
1062;SDS011;520;50.932;6.962;2022-08-02T15:56:43;2.50;;;2.27;;
1062;SDS011;520;50.932;6.962;2022-08-02T15:59:10;2.47;;;2.33;;
1062;SDS011;520;50.932;6.962;2022-08-02T16:01:36;6.13;;;2.63;;
1062;SDS011;520;50.932;6.962;2022-08-02T16:04:06;2.50;;;2.30;;
1062;SDS011;520;50.932;6.962;2022-08-02T16:06:33;2.57;;;2.40;;
1062;SDS011;520;50.932;6.962;2022-08-02T16:09:00;2.53;;;2.33;;
1062;SDS011;520;50.932;6.962;2022-08-02T16:11:28;2.37;;;2.17;;
1062;SDS011;520;50.932;6.962;2022-08-02T16:17:54;2.10;;;1.80;;
1062;SDS011;520;50.932;6.962;2022-08-02T16:24:39;3.47;;;2.60;;
1062;SDS011;520;50.932;6.962;2022-08-02T16:32:59;3.07;;;2.80;;
1062;SDS011;520;50.932;6.962;2022-08-02T16:35:32;2.70;;;2.33;;
1062;SDS011;520;50.932;6.962;2022-08-02T16:41:45;1.90;;;1.80;;
1062;SDS011;520;50.932;6.962;2022-08-02T16:44:27;1.97;;;1.87;;
1062;SDS011;520;50.932;6.962;2022-08-02T17:10:42;2.90;;;2.13;;
1062;SDS011;520;50.932;6.962;2022-08-02T17:13:16;3.33;;;2.10;;
1062;SDS011;520;50.932;6.962;2022-08-02T17:15:43;2.50;;;2.30;;
1062;SDS011;520;50.932;6.962;2022-08-02T17:18:30;3.30;;;2.10;;
1062;SDS011;520;50.932;6.962;2022-08-02T17:34:23;4.43;;;2.60;;
1062;SDS011;520;50.932;6.962;2022-08-02T17:36:52;2.70;;;2.23;;
1062;SDS011;520;50.932;6.962;2022-08-02T17:39:19;4.13;;;2.10;;
1062;SDS011;520;50.932;6.962;2022-08-02T17:41:55;2.63;;;2.43;;
1062;SDS011;520;50.932;6.962;2022-08-02T17:44:22;2.30;;;2.10;;
1062;SDS011;520;50.932;6.962;2022-08-02T17:47:03;4.30;;;3.10;;
1062;SDS011;520;50.932;6.962;2022-08-02T17:49:32;6.27;;;5.67;;
1062;SDS011;520;50.932;6.962;2022-08-02T17:52:03;2.67;;;2.23;;
1062;SDS011;520;50.932;6.962;2022-08-02T17:54:58;3.60;;;2.23;;
1062;SDS011;520;50.932;6.962;2022-08-02T17:57:29;3.93;;;2.40;;
1062;SDS011;520;50.932;6.962;2022-08-02T18:00:16;3.70;;;2.37;;
1062;SDS011;520;50.932;6.962;2022-08-02T18:02:43;3.00;;;2.57;;
1062;SDS011;520;50.932;6.962;2022-08-02T18:05:15;3.57;;;3.27;;
1062;SDS011;520;50.932;6.962;2022-08-02T18:07:42;2.70;;;2.50;;
1062;SDS011;520;50.932;6.962;2022-08-02T18:10:17;3.30;;;3.00;;
1062;SDS011;520;50.932;6.962;2022-08-02T18:12:43;3.10;;;2.70;;
1062;SDS011;520;50.932;6.962;2022-08-02T18:15:13;2.80;;;2.60;;
1062;SDS011;520;50.932;6.962;2022-08-02T18:17:41;4.10;;;3.17;;
1062;SDS011;520;50.932;6.962;2022-08-02T18:20:09;3.70;;;3.40;;
1062;SDS011;520;50.932;6.962;2022-08-02T18:22:37;4.93;;;2.27;;
1062;SDS011;520;50.932;6.962;2022-08-02T18:25:08;3.10;;;2.50;;
1062;SDS011;520;50.932;6.962;2022-08-02T18:27:35;3.07;;;2.63;;
1062;SDS011;520;50.932;6.962;2022-08-02T18:30:04;5.47;;;2.53;;
1062;SDS011;520;50.932;6.962;2022-08-02T18:32:32;3.37;;;2.57;;
1062;SDS011;520;50.932;6.962;2022-08-02T18:35:19;2.80;;;2.47;;
1062;SDS011;520;50.932;6.962;2022-08-02T18:37:46;2.90;;;2.60;;
1062;SDS011;520;50.932;6.962;2022-08-02T18:40:17;2.80;;;2.60;;
1062;SDS011;520;50.932;6.962;2022-08-02T18:42:44;3.27;;;2.47;;
1062;SDS011;520;50.932;6.962;2022-08-02T18:45:14;4.57;;;3.00;;
1062;SDS011;520;50.932;6.962;2022-08-02T18:47:45;4.50;;;4.20;;
1062;SDS011;520;50.932;6.962;2022-08-02T18:50:16;2.60;;;2.40;;
1062;SDS011;520;50.932;6.962;2022-08-02T18:52:43;4.43;;;2.83;;
1062;SDS011;520;50.932;6.962;2022-08-02T18:55:09;3.10;;;2.87;;
1062;SDS011;520;50.932;6.962;2022-08-02T18:57:42;5.07;;;4.70;;
1062;SDS011;520;50.932;6.962;2022-08-02T19:00:27;5.87;;;3.20;;
1062;SDS011;520;50.932;6.962;2022-08-02T19:02:55;5.83;;;3.20;;
1062;SDS011;520;50.932;6.962;2022-08-02T19:05:23;2.83;;;2.63;;
1062;SDS011;520;50.932;6.962;2022-08-02T19:08:10;2.80;;;2.60;;
1062;SDS011;520;50.932;6.962;2022-08-02T19:10:43;4.00;;;3.00;;
1062;SDS011;520;50.932;6.962;2022-08-02T19:13:12;4.57;;;3.30;;
1062;SDS011;520;50.932;6.962;2022-08-02T19:15:42;3.20;;;2.97;;
1062;SDS011;520;50.932;6.962;2022-08-02T19:18:13;4.90;;;4.50;;
1062;SDS011;520;50.932;6.962;2022-08-02T19:20:41;3.20;;;3.00;;
1062;SDS011;520;50.932;6.962;2022-08-02T19:26:55;5.97;;;3.43;;
1062;SDS011;520;50.932;6.962;2022-08-02T19:29:48;7.30;;;4.00;;
1062;SDS011;520;50.932;6.962;2022-08-02T19:32:19;6.10;;;3.27;;
1062;SDS011;520;50.932;6.962;2022-08-02T19:35:06;5.77;;;2.93;;
1062;SDS011;520;50.932;6.962;2022-08-02T19:43:46;5.60;;;3.40;;
1062;SDS011;520;50.932;6.962;2022-08-02T19:50:21;6.20;;;4.97;;
1062;SDS011;520;50.932;6.962;2022-08-02T19:55:31;3.70;;;3.17;;
1062;SDS011;520;50.932;6.962;2022-08-02T19:58:37;3.37;;;3.07;;
1062;SDS011;520;50.932;6.962;2022-08-02T20:04:21;4.13;;;3.73;;
1062;SDS011;520;50.932;6.962;2022-08-02T20:20:10;4.73;;;4.13;;
1062;SDS011;520;50.932;6.962;2022-08-02T20:22:38;3.70;;;3.27;;
1062;SDS011;520;50.932;6.962;2022-08-02T20:25:47;3.90;;;3.50;;
1062;SDS011;520;50.932;6.962;2022-08-02T20:28:16;3.80;;;3.47;;
1062;SDS011;520;50.932;6.962;2022-08-02T20:36:33;7.50;;;4.03;;
1062;SDS011;520;50.932;6.962;2022-08-02T20:43:01;5.00;;;3.07;;
1062;SDS011;520;50.932;6.962;2022-08-02T20:48:35;5.67;;;4.53;;
1062;SDS011;520;50.932;6.962;2022-08-02T20:56:25;5.70;;;3.07;;
1062;SDS011;520;50.932;6.962;2022-08-02T20:59:14;3.87;;;3.53;;
1062;SDS011;520;50.932;6.962;2022-08-02T21:02:07;4.90;;;3.50;;
1062;SDS011;520;50.932;6.962;2022-08-02T21:05:12;4.27;;;3.50;;
1062;SDS011;520;50.932;6.962;2022-08-02T21:07:52;4.80;;;3.73;;
1062;SDS011;520;50.932;6.962;2022-08-02T21:11:03;4.00;;;3.07;;
1062;SDS011;520;50.932;6.962;2022-08-02T21:13:34;3.70;;;3.00;;
1062;SDS011;520;50.932;6.962;2022-08-02T21:16:01;3.77;;;3.33;;
1062;SDS011;520;50.932;6.962;2022-08-02T21:18:31;3.63;;;3.00;;
1062;SDS011;520;50.932;6.962;2022-08-02T21:21:03;3.67;;;3.20;;
1062;SDS011;520;50.932;6.962;2022-08-02T21:23:39;3.67;;;3.17;;
1062;SDS011;520;50.932;6.962;2022-08-02T21:26:15;6.80;;;3.27;;
1062;SDS011;520;50.932;6.962;2022-08-02T21:28:51;4.30;;;3.33;;
1062;SDS011;520;50.932;6.962;2022-08-02T21:31:18;4.70;;;2.87;;
1062;SDS011;520;50.932;6.962;2022-08-02T21:33:44;7.63;;;2.90;;
1062;SDS011;520;50.932;6.962;2022-08-02T21:36:12;4.70;;;3.07;;
1062;SDS011;520;50.932;6.962;2022-08-02T21:38:39;3.83;;;3.20;;
1062;SDS011;520;50.932;6.962;2022-08-02T21:41:06;2.93;;;2.60;;
1062;SDS011;520;50.932;6.962;2022-08-02T21:43:44;3.80;;;3.50;;